Cabo Frio, Brazil
Current Conditions -  °F | °C
As of 12:00 PM on Wednesday 22 Oct 2014 (Local Time) from SBCB Reporting Station
Few Clouds Few Clouds  
Wind Chill: 82°   Ceiling: Unl
Heat Index: 82°   Visibility: 6mi
Dew Point: 57°   Wind: 9mph
Humidity: 42%   Direction: 100°E
Pressure: 30.21"   Gusts: NA
Location:  22.89°S, 42.04°W
Report Text: SBCB 221400Z 10008KT 9999 FEW015 28/14 Q1023
Loading
Personal Weather Stations






























Interactive Weather Map
Tropical Storm Tracking
New forecast layout! Learn more

10-Day Weather Forecast

Advertisements
Track Severe Weather on mobile